sensor_id;sensor_type;location;lat;lon;timestamp;P1;durP1;ratioP1;P2;durP2;ratioP2
82288;SDS011;71889;39.264;-120.910;2024-01-16T00:01:59;3.33;;;1.80;;
82288;SDS011;71889;39.264;-120.910;2024-01-16T00:04:26;4.53;;;2.00;;
82288;SDS011;71889;39.264;-120.910;2024-01-16T00:06:55;3.67;;;2.25;;
82288;SDS011;71889;39.264;-120.910;2024-01-16T00:09:22;4.68;;;2.13;;
82288;SDS011;71889;39.264;-120.910;2024-01-16T00:11:49;9.13;;;4.07;;
82288;SDS011;71889;39.264;-120.910;2024-01-16T00:14:15;5.22;;;2.15;;
82288;SDS011;71889;39.264;-120.910;2024-01-16T00:16:43;4.45;;;2.13;;
82288;SDS011;71889;39.264;-120.910;2024-01-16T00:19:10;3.50;;;1.58;;
82288;SDS011;71889;39.264;-120.910;2024-01-16T00:21:38;3.47;;;1.45;;
82288;SDS011;71889;39.264;-120.910;2024-01-16T00:24:07;2.67;;;1.50;;
82288;SDS011;71889;39.264;-120.910;2024-01-16T00:26:34;3.00;;;1.60;;
82288;SDS011;71889;39.264;-120.910;2024-01-16T00:29:00;2.40;;;1.17;;
82288;SDS011;71889;39.264;-120.910;2024-01-16T00:31:27;2.38;;;1.15;;
82288;SDS011;71889;39.264;-120.910;2024-01-16T00:33:54;2.75;;;1.20;;
82288;SDS011;71889;39.264;-120.910;2024-01-16T00:36:21;2.72;;;1.30;;
82288;SDS011;71889;39.264;-120.910;2024-01-16T00:38:47;2.92;;;1.40;;
82288;SDS011;71889;39.264;-120.910;2024-01-16T00:41:14;2.95;;;1.30;;
82288;SDS011;71889;39.264;-120.910;2024-01-16T00:43:42;2.88;;;1.63;;
82288;SDS011;71889;39.264;-120.910;2024-01-16T00:46:09;3.55;;;1.40;;
82288;SDS011;71889;39.264;-120.910;2024-01-16T00:48:35;2.83;;;1.42;;
82288;SDS011;71889;39.264;-120.910;2024-01-16T00:51:02;4.30;;;1.55;;
82288;SDS011;71889;39.264;-120.910;2024-01-16T00:53:29;3.50;;;1.33;;
82288;SDS011;71889;39.264;-120.910;2024-01-16T00:55:55;2.05;;;1.27;;
82288;SDS011;71889;39.264;-120.910;2024-01-16T00:58:22;3.10;;;1.60;;
82288;SDS011;71889;39.264;-120.910;2024-01-16T01:00:49;4.28;;;1.50;;
82288;SDS011;71889;39.264;-120.910;2024-01-16T01:03:16;3.25;;;1.35;;
82288;SDS011;71889;39.264;-120.910;2024-01-16T01:05:43;3.45;;;1.98;;
82288;SDS011;71889;39.264;-120.910;2024-01-16T01:08:10;4.82;;;1.83;;
82288;SDS011;71889;39.264;-120.910;2024-01-16T01:10:36;2.63;;;1.45;;
82288;SDS011;71889;39.264;-120.910;2024-01-16T01:13:03;2.50;;;1.65;;
82288;SDS011;71889;39.264;-120.910;2024-01-16T01:15:30;2.15;;;1.20;;
82288;SDS011;71889;39.264;-120.910;2024-01-16T01:17:57;2.13;;;1.27;;
82288;SDS011;71889;39.264;-120.910;2024-01-16T01:20:23;3.17;;;1.35;;
82288;SDS011;71889;39.264;-120.910;2024-01-16T01:22:51;5.72;;;2.42;;
82288;SDS011;71889;39.264;-120.910;2024-01-16T01:25:17;4.43;;;3.10;;
82288;SDS011;71889;39.264;-120.910;2024-01-16T01:27:44;5.25;;;2.67;;
82288;SDS011;71889;39.264;-120.910;2024-01-16T01:30:11;6.22;;;2.22;;
82288;SDS011;71889;39.264;-120.910;2024-01-16T01:32:38;9.90;;;1.90;;
82288;SDS011;71889;39.264;-120.910;2024-01-16T01:35:05;3.13;;;1.48;;
82288;SDS011;71889;39.264;-120.910;2024-01-16T01:37:32;3.25;;;1.73;;
82288;SDS011;71889;39.264;-120.910;2024-01-16T01:39:58;2.75;;;1.52;;
82288;SDS011;71889;39.264;-120.910;2024-01-16T01:42:25;8.52;;;4.20;;
82288;SDS011;71889;39.264;-120.910;2024-01-16T01:44:52;19.83;;;8.48;;
82288;SDS011;71889;39.264;-120.910;2024-01-16T01:47:19;16.63;;;6.05;;
82288;SDS011;71889;39.264;-120.910;2024-01-16T01:49:46;7.03;;;3.58;;
82288;SDS011;71889;39.264;-120.910;2024-01-16T01:52:13;7.53;;;3.97;;
82288;SDS011;71889;39.264;-120.910;2024-01-16T01:54:39;10.65;;;6.03;;
82288;SDS011;71889;39.264;-120.910;2024-01-16T01:57:07;9.70;;;5.47;;
82288;SDS011;71889;39.264;-120.910;2024-01-16T01:59:34;9.80;;;4.97;;
82288;SDS011;71889;39.264;-120.910;2024-01-16T02:02:02;8.45;;;4.82;;
82288;SDS011;71889;39.264;-120.910;2024-01-16T02:04:30;11.65;;;6.32;;
82288;SDS011;71889;39.264;-120.910;2024-01-16T02:06:57;13.07;;;6.38;;
82288;SDS011;71889;39.264;-120.910;2024-01-16T02:09:26;12.48;;;6.72;;
82288;SDS011;71889;39.264;-120.910;2024-01-16T02:11:59;11.65;;;5.78;;
82288;SDS011;71889;39.264;-120.910;2024-01-16T02:14:26;7.18;;;4.25;;
82288;SDS011;71889;39.264;-120.910;2024-01-16T02:16:53;8.63;;;4.15;;
82288;SDS011;71889;39.264;-120.910;2024-01-16T02:19:19;6.47;;;3.88;;
82288;SDS011;71889;39.264;-120.910;2024-01-16T02:24:16;9.55;;;4.50;;
82288;SDS011;71889;39.264;-120.910;2024-01-16T02:26:43;5.85;;;3.53;;
82288;SDS011;71889;39.264;-120.910;2024-01-16T02:29:10;4.97;;;3.00;;
82288;SDS011;71889;39.264;-120.910;2024-01-16T02:31:37;4.78;;;2.47;;
82288;SDS011;71889;39.264;-120.910;2024-01-16T02:34:03;6.07;;;3.63;;
82288;SDS011;71889;39.264;-120.910;2024-01-16T02:36:30;6.22;;;3.47;;
82288;SDS011;71889;39.264;-120.910;2024-01-16T02:38:57;8.52;;;3.80;;
82288;SDS011;71889;39.264;-120.910;2024-01-16T02:41:23;4.95;;;3.50;;
82288;SDS011;71889;39.264;-120.910;2024-01-16T02:43:51;6.65;;;4.20;;
82288;SDS011;71889;39.264;-120.910;2024-01-16T02:46:17;9.88;;;4.97;;
82288;SDS011;71889;39.264;-120.910;2024-01-16T02:48:44;9.90;;;5.45;;
82288;SDS011;71889;39.264;-120.910;2024-01-16T02:51:11;9.50;;;5.35;;
82288;SDS011;71889;39.264;-120.910;2024-01-16T02:53:38;6.70;;;4.18;;
82288;SDS011;71889;39.264;-120.910;2024-01-16T02:56:04;7.80;;;3.97;;
82288;SDS011;71889;39.264;-120.910;2024-01-16T02:58:31;5.25;;;2.97;;
82288;SDS011;71889;39.264;-120.910;2024-01-16T03:00:58;5.43;;;2.85;;
82288;SDS011;71889;39.264;-120.910;2024-01-16T03:03:24;4.47;;;2.67;;
82288;SDS011;71889;39.264;-120.910;2024-01-16T03:05:51;6.50;;;3.17;;
82288;SDS011;71889;39.264;-120.910;2024-01-16T03:08:17;5.30;;;3.17;;
82288;SDS011;71889;39.264;-120.910;2024-01-16T03:10:44;5.70;;;3.33;;
82288;SDS011;71889;39.264;-120.910;2024-01-16T03:13:11;6.82;;;3.67;;
82288;SDS011;71889;39.264;-120.910;2024-01-16T03:15:39;6.20;;;2.95;;
82288;SDS011;71889;39.264;-120.910;2024-01-16T03:18:06;5.68;;;3.17;;
82288;SDS011;71889;39.264;-120.910;2024-01-16T03:20:33;6.20;;;2.95;;
82288;SDS011;71889;39.264;-120.910;2024-01-16T03:23:00;11.57;;;4.65;;
82288;SDS011;71889;39.264;-120.910;2024-01-16T03:25:27;7.78;;;3.22;;
82288;SDS011;71889;39.264;-120.910;2024-01-16T03:27:53;6.13;;;3.35;;
82288;SDS011;71889;39.264;-120.910;2024-01-16T03:30:20;4.30;;;2.92;;
82288;SDS011;71889;39.264;-120.910;2024-01-16T03:32:47;11.93;;;4.13;;
82288;SDS011;71889;39.264;-120.910;2024-01-16T03:35:14;10.52;;;4.68;;
82288;SDS011;71889;39.264;-120.910;2024-01-16T03:37:40;11.05;;;5.05;;
82288;SDS011;71889;39.264;-120.910;2024-01-16T03:40:07;15.50;;;7.15;;
82288;SDS011;71889;39.264;-120.910;2024-01-16T03:42:34;16.70;;;7.80;;
82288;SDS011;71889;39.264;-120.910;2024-01-16T03:45:00;18.30;;;7.95;;
82288;SDS011;71889;39.264;-120.910;2024-01-16T03:47:27;19.38;;;7.63;;
82288;SDS011;71889;39.264;-120.910;2024-01-16T03:49:54;16.08;;;4.90;;
82288;SDS011;71889;39.264;-120.910;2024-01-16T03:52:20;19.55;;;5.13;;
82288;SDS011;71889;39.264;-120.910;2024-01-16T03:54:47;54.78;;;6.93;;
82288;SDS011;71889;39.264;-120.910;2024-01-16T03:57:14;58.85;;;9.20;;
82288;SDS011;71889;39.264;-120.910;2024-01-16T03:59:41;91.10;;;7.72;;
82288;SDS011;71889;39.264;-120.910;2024-01-16T04:02:07;48.42;;;5.40;;
82288;SDS011;71889;39.264;-120.910;2024-01-16T04:04:34;56.75;;;5.07;;
82288;SDS011;71889;39.264;-120.910;2024-01-16T04:07:01;47.15;;;6.90;;
82288;SDS011;71889;39.264;-120.910;2024-01-16T04:09:28;41.53;;;4.75;;
82288;SDS011;71889;39.264;-120.910;2024-01-16T04:11:55;44.92;;;3.92;;
82288;SDS011;71889;39.264;-120.910;2024-01-16T04:14:22;40.65;;;3.53;;
82288;SDS011;71889;39.264;-120.910;2024-01-16T04:16:49;55.50;;;4.80;;
82288;SDS011;71889;39.264;-120.910;2024-01-16T04:19:15;23.08;;;4.07;;
82288;SDS011;71889;39.264;-120.910;2024-01-16T04:21:42;22.20;;;3.92;;
82288;SDS011;71889;39.264;-120.910;2024-01-16T04:24:09;10.30;;;3.28;;
82288;SDS011;71889;39.264;-120.910;2024-01-16T04:26:36;22.33;;;3.70;;
82288;SDS011;71889;39.264;-120.910;2024-01-16T04:29:03;13.98;;;3.13;;
82288;SDS011;71889;39.264;-120.910;2024-01-16T04:31:30;9.18;;;2.92;;
82288;SDS011;71889;39.264;-120.910;2024-01-16T04:33:58;43.40;;;15.90;;
82288;SDS011;71889;39.264;-120.910;2024-01-16T04:36:25;21.33;;;7.30;;
82288;SDS011;71889;39.264;-120.910;2024-01-16T04:38:51;37.97;;;12.27;;
82288;SDS011;71889;39.264;-120.910;2024-01-16T04:41:18;26.50;;;6.97;;
82288;SDS011;71889;39.264;-120.910;2024-01-16T04:43:45;17.95;;;5.25;;
82288;SDS011;71889;39.264;-120.910;2024-01-16T04:46:13;21.13;;;7.00;;
82288;SDS011;71889;39.264;-120.910;2024-01-16T04:48:40;13.80;;;5.93;;
82288;SDS011;71889;39.264;-120.910;2024-01-16T04:51:07;18.50;;;4.30;;
82288;SDS011;71889;39.264;-120.910;2024-01-16T04:53:34;27.55;;;3.55;;
82288;SDS011;71889;39.264;-120.910;2024-01-16T04:56:01;23.73;;;6.28;;
82288;SDS011;71889;39.264;-120.910;2024-01-16T04:58:28;19.85;;;8.35;;
82288;SDS011;71889;39.264;-120.910;2024-01-16T05:00:55;49.38;;;13.60;;
82288;SDS011;71889;39.264;-120.910;2024-01-16T05:03:21;35.92;;;13.73;;
82288;SDS011;71889;39.264;-120.910;2024-01-16T05:05:48;42.13;;;12.80;;
82288;SDS011;71889;39.264;-120.910;2024-01-16T05:08:15;19.23;;;6.18;;
82288;SDS011;71889;39.264;-120.910;2024-01-16T05:10:41;17.73;;;3.60;;
82288;SDS011;71889;39.264;-120.910;2024-01-16T05:13:08;8.65;;;2.63;;
82288;SDS011;71889;39.264;-120.910;2024-01-16T05:15:37;5.07;;;2.10;;
82288;SDS011;71889;39.264;-120.910;2024-01-16T05:18:04;29.23;;;5.40;;
82288;SDS011;71889;39.264;-120.910;2024-01-16T05:20:31;16.65;;;8.15;;
82288;SDS011;71889;39.264;-120.910;2024-01-16T05:22:57;17.88;;;10.35;;
82288;SDS011;71889;39.264;-120.910;2024-01-16T05:25:24;20.63;;;9.82;;
82288;SDS011;71889;39.264;-120.910;2024-01-16T05:27:51;22.52;;;13.25;;
82288;SDS011;71889;39.264;-120.910;2024-01-16T05:30:17;24.88;;;12.35;;
82288;SDS011;71889;39.264;-120.910;2024-01-16T05:32:44;20.88;;;10.80;;
82288;SDS011;71889;39.264;-120.910;2024-01-16T05:35:11;15.52;;;7.43;;
82288;SDS011;71889;39.264;-120.910;2024-01-16T05:37:38;14.23;;;6.63;;
82288;SDS011;71889;39.264;-120.910;2024-01-16T05:40:04;13.68;;;6.68;;
82288;SDS011;71889;39.264;-120.910;2024-01-16T05:42:33;12.38;;;5.93;;
82288;SDS011;71889;39.264;-120.910;2024-01-16T05:45:00;17.90;;;5.68;;
82288;SDS011;71889;39.264;-120.910;2024-01-16T05:47:28;14.95;;;5.03;;
82288;SDS011;71889;39.264;-120.910;2024-01-16T05:49:55;24.70;;;4.72;;
82288;SDS011;71889;39.264;-120.910;2024-01-16T05:52:22;6.43;;;3.53;;
82288;SDS011;71889;39.264;-120.910;2024-01-16T05:54:49;8.70;;;4.43;;
82288;SDS011;71889;39.264;-120.910;2024-01-16T05:57:15;14.90;;;5.57;;
82288;SDS011;71889;39.264;-120.910;2024-01-16T05:59:42;11.48;;;5.68;;
82288;SDS011;71889;39.264;-120.910;2024-01-16T06:02:09;11.30;;;6.15;;
82288;SDS011;71889;39.264;-120.910;2024-01-16T06:04:36;8.40;;;4.75;;
82288;SDS011;71889;39.264;-120.910;2024-01-16T06:07:03;9.45;;;4.03;;
82288;SDS011;71889;39.264;-120.910;2024-01-16T06:09:32;9.98;;;4.00;;
82288;SDS011;71889;39.264;-120.910;2024-01-16T06:11:59;8.02;;;3.55;;
82288;SDS011;71889;39.264;-120.910;2024-01-16T06:14:25;6.20;;;3.10;;
82288;SDS011;71889;39.264;-120.910;2024-01-16T06:16:52;8.55;;;2.65;;
82288;SDS011;71889;39.264;-120.910;2024-01-16T06:19:19;4.55;;;2.33;;
82288;SDS011;71889;39.264;-120.910;2024-01-16T06:21:46;4.03;;;1.90;;
82288;SDS011;71889;39.264;-120.910;2024-01-16T06:24:13;12.90;;;2.60;;
82288;SDS011;71889;39.264;-120.910;2024-01-16T06:26:40;8.18;;;2.85;;
82288;SDS011;71889;39.264;-120.910;2024-01-16T06:29:08;7.90;;;2.97;;
82288;SDS011;71889;39.264;-120.910;2024-01-16T06:31:34;6.32;;;4.20;;
82288;SDS011;71889;39.264;-120.910;2024-01-16T06:34:01;8.10;;;3.63;;
82288;SDS011;71889;39.264;-120.910;2024-01-16T06:36:28;7.15;;;4.45;;
82288;SDS011;71889;39.264;-120.910;2024-01-16T06:38:54;8.07;;;4.50;;
82288;SDS011;71889;39.264;-120.910;2024-01-16T06:41:21;8.75;;;4.60;;
82288;SDS011;71889;39.264;-120.910;2024-01-16T06:43:48;11.65;;;6.07;;
82288;SDS011;71889;39.264;-120.910;2024-01-16T06:46:15;12.40;;;6.28;;
82288;SDS011;71889;39.264;-120.910;2024-01-16T06:48:42;14.25;;;6.55;;
82288;SDS011;71889;39.264;-120.910;2024-01-16T06:51:08;9.73;;;4.38;;
82288;SDS011;71889;39.264;-120.910;2024-01-16T06:53:36;27.92;;;8.15;;
82288;SDS011;71889;39.264;-120.910;2024-01-16T06:56:03;34.92;;;8.68;;
82288;SDS011;71889;39.264;-120.910;2024-01-16T06:58:29;37.58;;;8.27;;
82288;SDS011;71889;39.264;-120.910;2024-01-16T07:00:56;34.90;;;6.82;;
82288;SDS011;71889;39.264;-120.910;2024-01-16T07:03:23;28.80;;;5.63;;
82288;SDS011;71889;39.264;-120.910;2024-01-16T07:05:50;34.22;;;6.03;;
82288;SDS011;71889;39.264;-120.910;2024-01-16T07:08:16;38.15;;;6.20;;
82288;SDS011;71889;39.264;-120.910;2024-01-16T07:10:43;39.92;;;4.65;;
82288;SDS011;71889;39.264;-120.910;2024-01-16T07:13:11;22.42;;;3.92;;
82288;SDS011;71889;39.264;-120.910;2024-01-16T07:15:39;26.13;;;4.25;;
82288;SDS011;71889;39.264;-120.910;2024-01-16T07:18:06;36.15;;;4.63;;
82288;SDS011;71889;39.264;-120.910;2024-01-16T07:20:32;34.65;;;4.35;;
82288;SDS011;71889;39.264;-120.910;2024-01-16T07:22:59;31.17;;;4.22;;
82288;SDS011;71889;39.264;-120.910;2024-01-16T07:25:26;36.97;;;3.88;;
82288;SDS011;71889;39.264;-120.910;2024-01-16T07:27:53;28.30;;;3.75;;
82288;SDS011;71889;39.264;-120.910;2024-01-16T07:30:20;30.00;;;3.25;;
82288;SDS011;71889;39.264;-120.910;2024-01-16T07:32:46;45.60;;;4.38;;
82288;SDS011;71889;39.264;-120.910;2024-01-16T07:35:13;25.45;;;4.20;;
82288;SDS011;71889;39.264;-120.910;2024-01-16T07:37:40;13.38;;;4.65;;
82288;SDS011;71889;39.264;-120.910;2024-01-16T07:40:07;51.95;;;4.70;;
82288;SDS011;71889;39.264;-120.910;2024-01-16T07:42:35;26.50;;;3.65;;
82288;SDS011;71889;39.264;-120.910;2024-01-16T07:45:03;14.63;;;2.78;;
82288;SDS011;71889;39.264;-120.910;2024-01-16T07:47:33;43.35;;;4.47;;
82288;SDS011;71889;39.264;-120.910;2024-01-16T07:50:01;45.63;;;7.85;;
82288;SDS011;71889;39.264;-120.910;2024-01-16T07:52:28;30.10;;;4.55;;
82288;SDS011;71889;39.264;-120.910;2024-01-16T07:54:55;9.60;;;2.67;;
82288;SDS011;71889;39.264;-120.910;2024-01-16T07:57:22;17.52;;;2.10;;
82288;SDS011;71889;39.264;-120.910;2024-01-16T07:59:49;9.57;;;1.80;;
82288;SDS011;71889;39.264;-120.910;2024-01-16T08:02:16;5.28;;;2.15;;
82288;SDS011;71889;39.264;-120.910;2024-01-16T08:04:43;3.97;;;1.50;;
82288;SDS011;71889;39.264;-120.910;2024-01-16T08:07:10;3.28;;;1.52;;
82288;SDS011;71889;39.264;-120.910;2024-01-16T08:09:36;2.15;;;1.10;;
82288;SDS011;71889;39.264;-120.910;2024-01-16T08:12:03;1.65;;;1.05;;
82288;SDS011;71889;39.264;-120.910;2024-01-16T08:14:31;2.30;;;0.90;;
82288;SDS011;71889;39.264;-120.910;2024-01-16T08:16:57;2.33;;;1.00;;
82288;SDS011;71889;39.264;-120.910;2024-01-16T08:19:24;3.67;;;1.50;;
82288;SDS011;71889;39.264;-120.910;2024-01-16T08:21:51;4.68;;;1.23;;
82288;SDS011;71889;39.264;-120.910;2024-01-16T08:24:17;1.65;;;0.80;;
82288;SDS011;71889;39.264;-120.910;2024-01-16T08:26:44;1.88;;;1.08;;
82288;SDS011;71889;39.264;-120.910;2024-01-16T08:29:11;2.83;;;1.20;;
82288;SDS011;71889;39.264;-120.910;2024-01-16T08:31:38;1.52;;;0.80;;
82288;SDS011;71889;39.264;-120.910;2024-01-16T08:34:04;2.70;;;1.23;;
82288;SDS011;71889;39.264;-120.910;2024-01-16T08:36:31;2.90;;;1.23;;
82288;SDS011;71889;39.264;-120.910;2024-01-16T08:38:58;2.28;;;0.95;;
82288;SDS011;71889;39.264;-120.910;2024-01-16T08:41:24;1.63;;;0.80;;
82288;SDS011;71889;39.264;-120.910;2024-01-16T08:43:51;1.60;;;0.60;;
82288;SDS011;71889;39.264;-120.910;2024-01-16T08:46:19;3.75;;;0.80;;
82288;SDS011;71889;39.264;-120.910;2024-01-16T08:48:46;0.80;;;0.50;;
82288;SDS011;71889;39.264;-120.910;2024-01-16T08:51:13;1.40;;;0.60;;
82288;SDS011;71889;39.264;-120.910;2024-01-16T08:53:40;1.23;;;0.57;;
82288;SDS011;71889;39.264;-120.910;2024-01-16T08:56:07;1.00;;;0.65;;
82288;SDS011;71889;39.264;-120.910;2024-01-16T08:58:34;0.93;;;0.40;;
82288;SDS011;71889;39.264;-120.910;2024-01-16T09:01:03;0.90;;;0.40;;
82288;SDS011;71889;39.264;-120.910;2024-01-16T09:03:33;0.88;;;0.40;;
82288;SDS011;71889;39.264;-120.910;2024-01-16T09:06:00;1.02;;;0.50;;
82288;SDS011;71889;39.264;-120.910;2024-01-16T09:08:27;1.23;;;0.50;;
82288;SDS011;71889;39.264;-120.910;2024-01-16T09:10:54;0.82;;;0.40;;
82288;SDS011;71889;39.264;-120.910;2024-01-16T09:13:21;1.50;;;0.45;;
82288;SDS011;71889;39.264;-120.910;2024-01-16T09:15:48;0.77;;;0.47;;
82288;SDS011;71889;39.264;-120.910;2024-01-16T09:18:15;2.08;;;0.30;;
82288;SDS011;71889;39.264;-120.910;2024-01-16T09:20:43;1.30;;;0.32;;
82288;SDS011;71889;39.264;-120.910;2024-01-16T09:23:10;1.48;;;0.50;;
82288;SDS011;71889;39.264;-120.910;2024-01-16T09:25:36;0.95;;;0.43;;
82288;SDS011;71889;39.264;-120.910;2024-01-16T09:28:03;0.60;;;0.30;;
82288;SDS011;71889;39.264;-120.910;2024-01-16T09:30:30;0.50;;;0.35;;
82288;SDS011;71889;39.264;-120.910;2024-01-16T09:32:56;2.28;;;0.50;;
82288;SDS011;71889;39.264;-120.910;2024-01-16T09:35:23;0.57;;;0.30;;
82288;SDS011;71889;39.264;-120.910;2024-01-16T09:37:50;3.13;;;0.40;;
82288;SDS011;71889;39.264;-120.910;2024-01-16T09:40:16;2.70;;;0.60;;
82288;SDS011;71889;39.264;-120.910;2024-01-16T09:42:43;1.13;;;0.30;;
82288;SDS011;71889;39.264;-120.910;2024-01-16T09:45:11;0.55;;;0.20;;
82288;SDS011;71889;39.264;-120.910;2024-01-16T09:47:39;4.32;;;0.50;;
82288;SDS011;71889;39.264;-120.910;2024-01-16T09:50:06;0.63;;;0.43;;
82288;SDS011;71889;39.264;-120.910;2024-01-16T09:52:33;0.85;;;0.32;;
82288;SDS011;71889;39.264;-120.910;2024-01-16T09:55:00;1.98;;;0.50;;
82288;SDS011;71889;39.264;-120.910;2024-01-16T09:57:27;1.02;;;0.22;;
82288;SDS011;71889;39.264;-120.910;2024-01-16T09:59:55;0.75;;;0.30;;
82288;SDS011;71889;39.264;-120.910;2024-01-16T10:02:23;1.75;;;0.40;;
82288;SDS011;71889;39.264;-120.910;2024-01-16T10:04:50;1.98;;;0.40;;
82288;SDS011;71889;39.264;-120.910;2024-01-16T10:07:16;1.15;;;0.40;;
82288;SDS011;71889;39.264;-120.910;2024-01-16T10:09:43;0.28;;;0.20;;
82288;SDS011;71889;39.264;-120.910;2024-01-16T10:12:10;0.80;;;0.40;;
82288;SDS011;71889;39.264;-120.910;2024-01-16T10:14:38;2.88;;;0.40;;
82288;SDS011;71889;39.264;-120.910;2024-01-16T10:17:05;1.58;;;0.43;;
82288;SDS011;71889;39.264;-120.910;2024-01-16T10:19:49;2.47;;;1.02;;
82288;SDS011;71889;39.264;-120.910;2024-01-16T10:22:22;3.85;;;1.00;;
82288;SDS011;71889;39.264;-120.910;2024-01-16T10:24:56;1.20;;;0.30;;
82288;SDS011;71889;39.264;-120.910;2024-01-16T10:27:30;0.70;;;0.40;;
82288;SDS011;71889;39.264;-120.910;2024-01-16T10:29:57;0.85;;;0.30;;
82288;SDS011;71889;39.264;-120.910;2024-01-16T10:32:27;1.05;;;0.30;;
82288;SDS011;71889;39.264;-120.910;2024-01-16T10:35:18;1.08;;;0.50;;
82288;SDS011;71889;39.264;-120.910;2024-01-16T10:37:48;1.60;;;0.57;;
82288;SDS011;71889;39.264;-120.910;2024-01-16T10:40:15;0.52;;;0.20;;
82288;SDS011;71889;39.264;-120.910;2024-01-16T10:42:42;1.00;;;0.28;;
82288;SDS011;71889;39.264;-120.910;2024-01-16T10:45:18;0.95;;;0.50;;
82288;SDS011;71889;39.264;-120.910;2024-01-16T10:47:48;3.55;;;0.40;;
82288;SDS011;71889;39.264;-120.910;2024-01-16T10:50:14;0.82;;;0.20;;
82288;SDS011;71889;39.264;-120.910;2024-01-16T10:52:46;0.50;;;0.30;;
82288;SDS011;71889;39.264;-120.910;2024-01-16T10:55:23;0.80;;;0.30;;
82288;SDS011;71889;39.264;-120.910;2024-01-16T10:57:50;1.17;;;0.52;;
82288;SDS011;71889;39.264;-120.910;2024-01-16T11:00:20;3.50;;;0.95;;
82288;SDS011;71889;39.264;-120.910;2024-01-16T11:05:17;8.93;;;3.63;;
82288;SDS011;71889;39.264;-120.910;2024-01-16T11:07:43;7.93;;;2.75;;
82288;SDS011;71889;39.264;-120.910;2024-01-16T11:10:10;2.10;;;0.70;;
82288;SDS011;71889;39.264;-120.910;2024-01-16T11:12:38;2.60;;;0.93;;
82288;SDS011;71889;39.264;-120.910;2024-01-16T11:15:08;0.70;;;0.40;;
82288;SDS011;71889;39.264;-120.910;2024-01-16T11:17:38;0.70;;;0.30;;
82288;SDS011;71889;39.264;-120.910;2024-01-16T11:20:05;1.00;;;0.35;;
82288;SDS011;71889;39.264;-120.910;2024-01-16T11:25:10;1.00;;;0.30;;
82288;SDS011;71889;39.264;-120.910;2024-01-16T11:27:37;0.77;;;0.30;;
82288;SDS011;71889;39.264;-120.910;2024-01-16T11:30:08;1.35;;;0.50;;
82288;SDS011;71889;39.264;-120.910;2024-01-16T11:32:38;3.35;;;0.80;;
82288;SDS011;71889;39.264;-120.910;2024-01-16T11:35:09;1.77;;;0.55;;
82288;SDS011;71889;39.264;-120.910;2024-01-16T11:37:42;0.52;;;0.35;;
82288;SDS011;71889;39.264;-120.910;2024-01-16T11:42:48;0.52;;;0.20;;
82288;SDS011;71889;39.264;-120.910;2024-01-16T11:48:10;1.42;;;0.60;;
82288;SDS011;71889;39.264;-120.910;2024-01-16T11:50:37;1.00;;;0.50;;
82288;SDS011;71889;39.264;-120.910;2024-01-16T11:53:04;1.23;;;0.57;;
82288;SDS011;71889;39.264;-120.910;2024-01-16T11:55:31;1.77;;;0.50;;
82288;SDS011;71889;39.264;-120.910;2024-01-16T11:58:33;0.73;;;0.20;;
82288;SDS011;71889;39.264;-120.910;2024-01-16T12:00:51;0.98;;;0.35;;
82288;SDS011;71889;39.264;-120.910;2024-01-16T12:03:20;2.25;;;0.80;;
82288;SDS011;71889;39.264;-120.910;2024-01-16T12:05:57;1.00;;;0.40;;
82288;SDS011;71889;39.264;-120.910;2024-01-16T12:08:23;0.75;;;0.35;;
82288;SDS011;71889;39.264;-120.910;2024-01-16T12:10:50;0.95;;;0.47;;
82288;SDS011;71889;39.264;-120.910;2024-01-16T12:13:17;1.73;;;0.60;;
82288;SDS011;71889;39.264;-120.910;2024-01-16T12:15:43;1.77;;;0.55;;
82288;SDS011;71889;39.264;-120.910;2024-01-16T12:18:17;2.75;;;0.90;;
82288;SDS011;71889;39.264;-120.910;2024-01-16T12:20:44;2.47;;;1.23;;
82288;SDS011;71889;39.264;-120.910;2024-01-16T12:23:10;1.92;;;0.90;;
82288;SDS011;71889;39.264;-120.910;2024-01-16T12:25:37;3.13;;;0.68;;
82288;SDS011;71889;39.264;-120.910;2024-01-16T12:28:06;2.17;;;0.75;;
82288;SDS011;71889;39.264;-120.910;2024-01-16T12:30:36;1.40;;;0.73;;
82288;SDS011;71889;39.264;-120.910;2024-01-16T12:33:06;1.88;;;0.70;;
82288;SDS011;71889;39.264;-120.910;2024-01-16T12:35:34;1.77;;;0.57;;
82288;SDS011;71889;39.264;-120.910;2024-01-16T12:38:01;1.05;;;0.45;;
82288;SDS011;71889;39.264;-120.910;2024-01-16T12:40:28;1.60;;;0.60;;
82288;SDS011;71889;39.264;-120.910;2024-01-16T12:42:55;1.00;;;0.40;;
82288;SDS011;71889;39.264;-120.910;2024-01-16T12:45:22;0.70;;;0.32;;
82288;SDS011;71889;39.264;-120.910;2024-01-16T12:47:52;0.75;;;0.30;;
82288;SDS011;71889;39.264;-120.910;2024-01-16T12:50:20;0.95;;;0.40;;
82288;SDS011;71889;39.264;-120.910;2024-01-16T12:52:48;1.00;;;0.40;;
82288;SDS011;71889;39.264;-120.910;2024-01-16T12:55:16;0.98;;;0.57;;
82288;SDS011;71889;39.264;-120.910;2024-01-16T12:57:43;1.02;;;0.32;;
82288;SDS011;71889;39.264;-120.910;2024-01-16T13:00:21;1.20;;;0.50;;
82288;SDS011;71889;39.264;-120.910;2024-01-16T13:02:54;0.93;;;0.40;;
82288;SDS011;71889;39.264;-120.910;2024-01-16T13:05:24;1.65;;;0.40;;
82288;SDS011;71889;39.264;-120.910;2024-01-16T13:08:01;0.73;;;0.40;;
82288;SDS011;71889;39.264;-120.910;2024-01-16T13:10:31;0.63;;;0.32;;
82288;SDS011;71889;39.264;-120.910;2024-01-16T13:13:17;0.68;;;0.25;;
82288;SDS011;71889;39.264;-120.910;2024-01-16T13:15:44;1.42;;;0.50;;
82288;SDS011;71889;39.264;-120.910;2024-01-16T13:18:21;1.55;;;0.30;;
82288;SDS011;71889;39.264;-120.910;2024-01-16T13:20:51;0.85;;;0.30;;
82288;SDS011;71889;39.264;-120.910;2024-01-16T13:23:18;1.83;;;0.43;;
82288;SDS011;71889;39.264;-120.910;2024-01-16T13:25:46;2.30;;;0.50;;
82288;SDS011;71889;39.264;-120.910;2024-01-16T13:28:17;1.05;;;0.47;;
82288;SDS011;71889;39.264;-120.910;2024-01-16T13:30:45;1.85;;;0.40;;
82288;SDS011;71889;39.264;-120.910;2024-01-16T13:33:12;1.30;;;0.40;;
82288;SDS011;71889;39.264;-120.910;2024-01-16T13:35:40;1.05;;;0.30;;
82288;SDS011;71889;39.264;-120.910;2024-01-16T13:38:08;1.00;;;0.32;;
82288;SDS011;71889;39.264;-120.910;2024-01-16T13:40:37;1.85;;;0.85;;
82288;SDS011;71889;39.264;-120.910;2024-01-16T13:43:04;2.25;;;0.50;;
82288;SDS011;71889;39.264;-120.910;2024-01-16T13:48:04;0.47;;;0.13;;
82288;SDS011;71889;39.264;-120.910;2024-01-16T13:50:32;0.47;;;0.20;;
82288;SDS011;71889;39.264;-120.910;2024-01-16T13:52:59;1.70;;;0.40;;
82288;SDS011;71889;39.264;-120.910;2024-01-16T13:55:27;1.27;;;0.73;;
82288;SDS011;71889;39.264;-120.910;2024-01-16T13:57:54;1.50;;;0.90;;
82288;SDS011;71889;39.264;-120.910;2024-01-16T14:00:20;3.40;;;1.30;;
82288;SDS011;71889;39.264;-120.910;2024-01-16T14:02:48;3.78;;;1.20;;
82288;SDS011;71889;39.264;-120.910;2024-01-16T14:05:18;2.25;;;1.15;;
82288;SDS011;71889;39.264;-120.910;2024-01-16T14:07:45;4.50;;;1.80;;
82288;SDS011;71889;39.264;-120.910;2024-01-16T14:10:16;4.00;;;1.75;;
82288;SDS011;71889;39.264;-120.910;2024-01-16T14:15:10;1.50;;;0.90;;
82288;SDS011;71889;39.264;-120.910;2024-01-16T14:17:49;2.53;;;1.33;;
82288;SDS011;71889;39.264;-120.910;2024-01-16T14:20:18;2.78;;;1.40;;
82288;SDS011;71889;39.264;-120.910;2024-01-16T14:22:48;2.92;;;1.70;;
82288;SDS011;71889;39.264;-120.910;2024-01-16T14:25:15;5.90;;;2.97;;
82288;SDS011;71889;39.264;-120.910;2024-01-16T14:27:45;2.67;;;1.52;;